Time;durP1;ratioP1;P1;durP2;ratioP2;P2;SDS_P1;SDS_P2;PMS_P1;PMS_P2;Temp;Humidity;BMP_temperature;BMP_pressure;BME280_temperature;BME280_humidity;BME280_pressure;Samples;Min_cycle;Max_cycle;Signal;HPM_P1;HPM_P2
2023/01/23 00:00:49;;;;;;;56.25;15.25;;;;;;;-18.57;70.75;100991.63;4912371;28;20057;-52
2023/01/23 00:03:20;;;;;;;77.47;19.75;;;;;;;-17.66;70.25;101142.06;4907148;28;20129;-52
2023/01/23 00:05:58;;;;;;;46.80;13.65;;;;;;;-17.77;68.96;101144.97;4915258;28;20099;-55
2023/01/23 00:08:31;;;;;;;24.25;9.18;;;;;;;-17.69;69.26;101151.72;4911907;28;20156;-54
2023/01/23 00:11:06;;;;;;;71.13;18.15;;;;;;;-17.57;68.44;101152.13;4902073;28;20117;-54
2023/01/23 00:13:37;;;;;;;65.03;17.20;;;;;;;-17.52;68.03;101159.44;4912067;28;20102;-53
2023/01/23 00:16:11;;;;;;;30.33;10.80;;;;;;;-17.42;67.49;101152.22;4911945;28;20052;-53
2023/01/23 00:18:41;;;;;;;36.10;11.07;;;;;;;-17.54;66.41;101148.38;4902021;28;20153;-53
2023/01/23 00:21:13;;;;;;;24.38;7.72;;;;;;;-17.56;65.74;101139.84;4912115;28;20099;-53
2023/01/23 00:23:45;;;;;;;20.83;7.10;;;;;;;-17.56;65.06;101144.81;4912127;28;20761;-56
2023/01/23 00:26:18;;;;;;;16.55;7.60;;;;;;;-18.13;64.43;101055.44;4899830;28;20360;-54
2023/01/23 00:28:49;;;;;;;18.65;6.95;;;;;;;-17.47;64.51;101128.34;4896721;28;20657;-54
2023/01/23 00:31:23;;;;;;;17.35;7.80;;;;;;;-17.43;64.44;101117.94;4889181;28;20057;-53
2023/01/23 00:33:56;;;;;;;20.25;10.32;;;;;;;-17.35;64.27;101125.38;4892704;28;20056;-57
2023/01/23 00:36:29;;;;;;;16.88;8.55;;;;;;;-17.25;64.56;101123.13;4892142;28;20063;-55
2023/01/23 00:39:00;;;;;;;17.17;7.90;;;;;;;-17.08;65.07;101133.31;4888928;28;20513;-53
2023/01/23 00:41:30;;;;;;;20.02;8.70;;;;;;;-16.79;65.11;101123.03;4894765;28;20066;-55
2023/01/23 00:44:01;;;;;;;17.40;8.48;;;;;;;-16.71;64.99;101132.16;4899646;28;20117;-56
2023/01/23 00:46:33;;;;;;;25.15;9.27;;;;;;;-16.50;64.70;101127.63;4911013;28;20063;-56
2023/01/23 00:49:04;;;;;;;20.42;7.90;;;;;;;-16.39;64.42;101112.13;4910800;28;20072;-56
2023/01/23 00:51:35;;;;;;;23.75;9.43;;;;;;;-16.24;64.15;101121.22;4910596;28;20189;-55
2023/01/23 00:54:05;;;;;;;23.50;10.60;;;;;;;-15.99;63.26;101131.25;4910764;28;20109;-56
2023/01/23 00:56:36;;;;;;;22.85;9.75;;;;;;;-15.89;63.05;101123.94;4909672;28;20055;-56
2023/01/23 00:59:06;;;;;;;31.02;10.38;;;;;;;-15.53;63.12;101128.34;4911213;28;20094;-58
2023/01/23 01:01:39;;;;;;;22.50;8.10;;;;;;;-15.33;63.10;101126.19;4909939;28;20059;-54
2023/01/23 01:04:09;;;;;;;15.13;7.10;;;;;;;-15.23;62.58;101117.97;4889390;28;20112;-57
2023/01/23 01:06:40;;;;;;;11.60;5.75;;;;;;;-15.05;62.15;101118.91;4904732;28;21193;-58
2023/01/23 01:09:10;;;;;;;14.90;6.15;;;;;;;-14.86;62.00;101117.47;4895488;28;20053;-58
2023/01/23 01:11:43;;;;;;;7.78;4.55;;;;;;;-14.63;61.70;101106.25;4891420;28;20111;-57
2023/01/23 01:14:14;;;;;;;9.93;4.80;;;;;;;-14.39;61.90;101098.56;4909535;28;20056;-57
2023/01/23 01:16:47;;;;;;;9.23;3.72;;;;;;;-14.17;62.27;101095.59;4910100;28;20462;-56
2023/01/23 01:19:18;;;;;;;8.80;4.45;;;;;;;-14.12;61.89;101084.34;4896871;28;20044;-56
2023/01/23 01:21:49;;;;;;;3.70;2.88;;;;;;;-13.94;61.83;101085.19;4900600;28;22336;-58
2023/01/23 01:24:19;;;;;;;3.00;2.67;;;;;;;-14.09;61.51;101039.44;4918242;28;20766;-57
2023/01/23 01:26:53;;;;;;;3.25;2.28;;;;;;;-13.79;61.18;101070.66;4908195;28;20060;-57
2023/01/23 01:29:23;;;;;;;4.05;2.03;;;;;;;-13.82;60.45;101060.31;4891647;28;20045;-55
2023/01/23 01:31:55;;;;;;;2.50;2.30;;;;;;;-13.75;60.50;101047.56;4892051;28;20049;-57
2023/01/23 01:34:26;;;;;;;2.17;1.98;;;;;;;-14.24;59.65;100972.72;4890961;28;20572;-57
2023/01/23 01:36:57;;;;;;;2.75;2.00;;;;;;;-13.76;59.91;101048.31;4891857;28;20483;-58
2023/01/23 01:39:27;;;;;;;2.40;2.17;;;;;;;-13.73;59.27;101041.06;4891205;28;20084;-57
2023/01/23 01:41:58;;;;;;;2.28;2.10;;;;;;;-13.73;58.89;101031.00;4890002;28;20060;-56
2023/01/23 01:44:28;;;;;;;2.40;2.20;;;;;;;-13.66;58.61;101033.34;4894181;28;20126;-58
2023/01/23 01:47:00;;;;;;;2.78;2.58;;;;;;;-13.77;57.62;101014.78;4891497;28;20063;-56
2023/01/23 01:49:34;;;;;;;2.33;2.20;;;;;;;-14.33;57.35;100912.47;4881243;28;20133;-57
2023/01/23 01:52:07;;;;;;;2.30;2.10;;;;;;;-13.76;58.36;101005.59;4890422;28;20052;-56
2023/01/23 01:54:43;;;;;;;2.50;2.10;;;;;;;-13.64;59.06;101011.75;4895060;28;20056;-57
2023/01/23 01:57:19;;;;;;;2.20;2.00;;;;;;;-13.91;58.93;100950.69;4899141;28;20052;-57
2023/01/23 01:59:54;;;;;;;3.30;1.90;;;;;;;-13.62;58.07;101005.25;4893436;28;20096;-58
2023/01/23 02:02:31;;;;;;;2.55;1.90;;;;;;;-13.56;58.72;100990.72;4900729;28;20083;-58
2023/01/23 02:05:09;;;;;;;3.17;2.00;;;;;;;-13.58;57.13;100994.69;4887202;28;20060;-59
2023/01/23 02:07:45;;;;;;;;;;;;;;;-13.63;58.19;100987.50;4895319;28;20052;-58
2023/01/23 02:10:18;;;;;;;2.60;2.30;;;;;;;-13.61;58.22;100986.91;4907275;28;19928;-58
2023/01/23 02:12:58;;;;;;;2.30;2.10;;;;;;;-13.64;57.94;100984.09;4882971;28;20500;-59
2023/01/23 02:15:41;;;;;;;2.03;1.90;;;;;;;-13.47;58.79;100978.97;4879329;28;20068;-58
2023/01/23 02:18:25;;;;;;;4.60;2.10;;;;;;;-13.26;59.18;100966.53;4880486;28;20068;-58
2023/01/23 02:21:04;;;;;;;3.42;2.17;;;;;;;-13.20;58.37;100956.13;4874904;28;20107;-59
2023/01/23 02:23:51;;;;;;;2.00;1.90;;;;;;;-13.12;57.42;100965.25;4889723;28;20102;-59
2023/01/23 02:26:28;;;;;;;5.80;2.00;;;;;;;-13.89;56.13;100849.50;4869858;28;20103;-59
2023/01/23 02:28:58;;;;;;;3.13;1.98;;;;;;;-13.26;56.45;100966.53;4891702;28;20487;-59
2023/01/23 02:31:29;;;;;;;7.82;2.08;;;;;;;-13.57;56.19;100908.53;4889475;28;20066;-59
2023/01/23 02:34:00;;;;;;;5.57;2.03;;;;;;;-13.28;56.66;100952.97;4895371;28;20589;-59
2023/01/23 02:36:32;;;;;;;5.35;1.85;;;;;;;-13.25;57.26;100939.00;4891214;28;20096;-59
2023/01/23 02:39:07;;;;;;;1.90;1.80;;;;;;;-13.07;56.20;100944.78;4890240;28;20060;-58
2023/01/23 02:41:41;;;;;;;7.43;3.25;;;;;;;-12.89;57.07;100964.75;4890360;28;20053;-58
2023/01/23 02:44:17;;;;;;;2.88;1.92;;;;;;;-13.01;55.59;100948.56;4878338;28;20110;-59
2023/01/23 02:46:47;;;;;;;2.60;1.80;;;;;;;-12.88;55.91;100952.31;4891273;28;20325;-59
2023/01/23 02:49:18;;;;;;;6.30;1.90;;;;;;;-12.84;56.10;100945.91;4888627;28;20048;-58
2023/01/23 02:51:49;;;;;;;3.40;2.10;;;;;;;-12.82;55.81;100962.03;4890093;28;23236;-60
2023/01/23 02:54:19;;;;;;;2.10;1.90;;;;;;;-12.82;55.13;100951.97;4897083;28;20056;-59
2023/01/23 02:56:51;;;;;;;6.90;2.10;;;;;;;-12.84;54.97;100953.44;4896038;28;21074;-59
2023/01/23 03:02:09;;;;;;;2.25;1.90;;;;;;;-13.06;53.35;100941.50;4877466;28;20401;-59
2023/01/23 03:04:40;;;;;;;3.42;2.08;;;;;;;-13.20;52.94;100952.00;4894787;28;21601;-59
2023/01/23 03:07:10;;;;;;;3.13;1.90;;;;;;;-13.30;53.12;100954.47;4893946;28;20062;-59
2023/01/23 03:09:45;;;;;;;2.88;1.85;;;;;;;-13.35;53.64;100946.53;4892382;28;20746;-59
2023/01/23 03:12:17;;;;;;;2.10;1.98;;;;;;;-13.29;54.71;100938.63;4888848;28;20053;-59
2023/01/23 03:14:53;;;;;;;3.28;2.00;;;;;;;-13.22;54.01;100933.38;4889428;28;20048;-58
2023/01/23 03:17:24;;;;;;;3.90;2.08;;;;;;;-13.06;54.54;100931.44;4879887;28;20045;-59
2023/01/23 03:19:56;;;;;;;1.92;1.83;;;;;;;-12.96;54.71;100932.25;4886580;28;20051;-59
2023/01/23 03:22:26;;;;;;;2.22;1.80;;;;;;;-12.90;54.17;100922.72;4890149;28;20048;-58
2023/01/23 03:24:57;;;;;;;2.20;2.00;;;;;;;-12.84;53.23;100923.25;4886295;28;20072;-59
2023/01/23 03:27:31;;;;;;;2.42;2.03;;;;;;;-12.89;52.87;100924.50;4885945;28;20052;-59
2023/01/23 03:30:15;;;;;;;2.85;2.15;;;;;;;-12.82;53.35;100931.81;4876139;28;20439;-59
2023/01/23 03:32:47;;;;;;;2.85;2.10;;;;;;;-12.73;53.39;100912.47;4874798;28;20084;-59
2023/01/23 03:35:19;;;;;;;2.20;2.00;;;;;;;-12.45;53.90;100917.38;4887381;28;20049;-59
2023/01/23 03:37:51;;;;;;;2.70;1.95;;;;;;;-12.37;53.48;100923.94;4884159;28;20050;-59
2023/01/23 03:43:21;;;;;;;3.33;2.10;;;;;;;-12.27;51.96;100911.38;4831601;28;20466;-59
2023/01/23 03:45:51;;;;;;;4.00;2.22;;;;;;;-12.17;51.85;100903.84;4886085;28;20052;-59
2023/01/23 03:48:22;;;;;;;2.95;2.10;;;;;;;-12.12;52.58;100855.47;4885952;28;20050;-59
2023/01/23 03:50:52;;;;;;;2.00;1.83;;;;;;;-11.73;51.96;100894.00;4884713;28;20503;-59
2023/01/23 03:53:23;;;;;;;2.03;1.92;;;;;;;-11.83;51.80;100888.97;4885146;28;20441;-62
2023/01/23 03:55:54;;;;;;;3.05;1.80;;;;;;;-11.66;52.40;100885.28;4885938;28;20463;-60
2023/01/23 03:58:26;;;;;;;4.22;1.95;;;;;;;-11.43;52.31;100884.66;4886194;28;20134;-59
2023/01/23 04:00:57;;;;;;;2.15;1.85;;;;;;;-11.21;52.24;100881.31;4885526;28;20053;-59
2023/01/23 04:03:27;;;;;;;2.25;1.98;;;;;;;-11.05;52.17;100874.22;4885432;28;20376;-59
2023/01/23 04:06:00;;;;;;;1.60;1.50;;;;;;;-11.00;51.32;100878.00;4885681;28;20126;-59
2023/01/23 04:08:31;;;;;;;2.30;1.70;;;;;;;-11.19;51.17;100884.84;4876621;28;20050;-59
2023/01/23 04:11:07;;;;;;;3.55;2.13;;;;;;;-11.49;50.99;100858.94;4892245;28;20048;-60
2023/01/23 04:13:40;;;;;;;2.63;1.63;;;;;;;-11.69;50.49;100879.13;4902274;28;20056;-60
2023/01/23 04:16:10;;;;;;;2.53;1.92;;;;;;;-11.70;52.83;100872.31;4896586;28;20512;-60
2023/01/23 04:18:41;;;;;;;2.00;1.75;;;;;;;-11.46;53.30;100864.22;4905046;28;20186;-59
2023/01/23 04:21:11;;;;;;;2.33;1.80;;;;;;;-11.27;53.16;100865.72;4889549;28;20049;-60
2023/01/23 04:23:42;;;;;;;3.63;2.20;;;;;;;-11.14;53.29;100863.41;4901551;28;20056;-59
2023/01/23 04:26:12;;;;;;;2.53;1.80;;;;;;;-11.12;52.69;100859.34;4902936;28;20411;-59
2023/01/23 04:28:44;;;;;;;3.25;1.90;;;;;;;-11.27;52.60;100855.63;4901795;28;20121;-59
2023/01/23 04:31:15;;;;;;;3.88;2.40;;;;;;;-11.26;53.31;100862.41;4900520;28;20064;-59
2023/01/23 04:33:46;;;;;;;4.70;2.47;;;;;;;-11.18;53.33;100856.34;4902018;28;20399;-60
2023/01/23 04:36:17;;;;;;;4.70;2.10;;;;;;;-11.06;53.94;100864.88;4901746;28;20064;-59
2023/01/23 04:38:48;;;;;;;3.17;2.20;;;;;;;-11.02;53.54;100874.47;4901240;28;20086;-59
2023/01/23 04:41:21;;;;;;;4.03;1.92;;;;;;;-11.01;53.97;100858.53;4901116;28;20131;-59
2023/01/23 04:43:55;;;;;;;1.50;1.40;;;;;;;-10.93;53.56;100874.28;4891939;28;20052;-59
2023/01/23 04:46:26;;;;;;;1.92;1.63;;;;;;;-10.87;53.11;100875.66;4901953;28;20140;-59
2023/01/23 04:48:57;;;;;;;2.45;1.70;;;;;;;-10.88;52.99;100873.91;4901817;28;20049;-59
2023/01/23 04:51:27;;;;;;;4.25;2.50;;;;;;;-10.92;52.92;100866.84;4901585;28;21168;-59
2023/01/23 04:53:57;;;;;;;3.05;2.13;;;;;;;-10.91;53.83;100868.59;4901932;28;21231;-60
2023/01/23 04:56:28;;;;;;;1.95;1.70;;;;;;;-11.10;52.99;100875.50;4901883;28;20053;-59
2023/01/23 04:59:00;;;;;;;7.45;2.80;;;;;;;-11.29;52.99;100868.09;4901706;28;20048;-59
2023/01/23 05:01:30;;;;;;;19.48;5.68;;;;;;;-11.65;54.54;100816.50;4893586;28;20633;-59
2023/01/23 05:04:01;;;;;;;7.32;3.65;;;;;;;-11.25;54.44;100884.38;4902069;28;20390;-60
2023/01/23 05:06:32;;;;;;;11.02;2.80;;;;;;;-11.36;54.09;100870.88;4901617;28;20962;-59
2023/01/23 05:09:02;;;;;;;3.25;1.90;;;;;;;-11.59;53.77;100846.34;4901135;28;20078;-59
2023/01/23 05:11:33;;;;;;;7.30;2.10;;;;;;;-11.37;54.01;100875.06;4900673;28;20056;-59
2023/01/23 05:14:05;;;;;;;1.85;1.67;;;;;;;-11.43;53.78;100879.63;4902046;28;20422;-59
2023/01/23 05:16:35;;;;;;;3.95;1.90;;;;;;;-11.55;53.82;100878.63;4900812;28;20098;-59
2023/01/23 05:19:06;;;;;;;4.30;2.63;;;;;;;-12.24;53.78;100780.66;4900245;28;20066;-59
2023/01/23 05:21:37;;;;;;;4.88;2.28;;;;;;;-11.67;54.33;100862.50;4900275;28;20052;-59
2023/01/23 05:24:09;;;;;;;6.18;3.33;;;;;;;-11.52;54.89;100873.81;4901324;28;20109;-59
2023/01/23 05:26:39;;;;;;;12.93;5.32;;;;;;;-11.49;54.94;100874.06;4897317;28;20053;-60
2023/01/23 05:29:12;;;;;;;15.02;5.95;;;;;;;-11.62;54.19;100862.09;4905108;28;20049;-59
2023/01/23 05:31:42;;;;;;;19.35;7.13;;;;;;;-11.57;54.82;100875.09;4901513;28;20097;-59
2023/01/23 05:34:13;;;;;;;21.83;7.40;;;;;;;-11.65;54.67;100866.03;4901275;28;20052;-59
2023/01/23 05:36:43;;;;;;;11.40;5.55;;;;;;;-11.66;54.51;100864.25;4901692;28;20068;-60
2023/01/23 05:39:14;;;;;;;6.03;3.38;;;;;;;-11.56;54.75;100864.25;4898872;28;20060;-59
2023/01/23 05:41:44;;;;;;;6.75;3.10;;;;;;;-11.70;53.89;100863.13;4896547;28;20048;-60
2023/01/23 05:44:16;;;;;;;3.65;2.40;;;;;;;-11.70;54.76;100873.22;4900340;28;20059;-60
2023/01/23 05:46:47;;;;;;;7.22;2.13;;;;;;;-11.78;54.37;100865.03;4901127;28;20049;-60
2023/01/23 05:49:18;;;;;;;5.80;2.65;;;;;;;-11.73;55.36;100863.78;4900336;28;20084;-59
2023/01/23 05:51:48;;;;;;;6.20;3.08;;;;;;;-11.76;55.18;100855.06;4900443;28;20101;-60
2023/01/23 05:54:18;;;;;;;5.15;3.10;;;;;;;-11.76;56.05;100853.41;4900923;28;20049;-59
2023/01/23 05:56:49;;;;;;;5.57;2.72;;;;;;;-11.70;56.19;100862.22;4896688;28;20108;-59
2023/01/23 05:59:22;;;;;;;6.63;3.40;;;;;;;-11.83;54.83;100856.22;4903074;28;20046;-60
2023/01/23 06:01:53;;;;;;;5.28;3.17;;;;;;;-11.90;54.49;100864.06;4901359;28;20052;-59
2023/01/23 06:04:24;;;;;;;8.13;3.58;;;;;;;-11.91;54.88;100862.28;4901603;28;20054;-59
2023/01/23 06:06:55;;;;;;;6.32;3.40;;;;;;;-12.02;54.97;100850.44;4900805;28;20056;-59
2023/01/23 06:09:26;;;;;;;12.65;5.85;;;;;;;-12.14;54.69;100862.03;4900531;28;20052;-59
2023/01/23 06:11:56;;;;;;;10.90;4.43;;;;;;;-12.42;55.06;100864.75;4888908;28;20059;-60
2023/01/23 06:14:29;;;;;;;9.95;3.70;;;;;;;-12.56;56.42;100865.22;4884506;28;20056;-59
2023/01/23 06:16:59;;;;;;;10.55;4.63;;;;;;;-12.74;56.29;100857.00;4882128;28;20061;-59
2023/01/23 06:19:30;;;;;;;11.27;4.95;;;;;;;-12.64;57.37;100857.91;4889352;28;20109;-59
2023/01/23 06:22:00;;;;;;;11.52;3.97;;;;;;;-12.61;57.50;100858.16;4885024;28;20093;-59
2023/01/23 06:24:31;;;;;;;9.02;4.30;;;;;;;-12.82;57.57;100833.69;4883702;28;20055;-59
2023/01/23 06:27:03;;;;;;;8.73;3.90;;;;;;;-12.80;57.81;100844.78;4883181;28;20392;-59
2023/01/23 06:29:35;;;;;;;8.45;4.07;;;;;;;-12.94;57.37;100845.22;4883099;28;20068;-59
2023/01/23 06:32:07;;;;;;;7.55;4.43;;;;;;;-13.17;57.42;100829.03;4883653;28;20073;-59
2023/01/23 06:34:37;;;;;;;11.35;4.90;;;;;;;-13.12;58.28;100830.31;4882871;28;20493;-59
2023/01/23 06:37:08;;;;;;;9.32;4.20;;;;;;;-13.13;57.91;100848.66;4883139;28;20077;-59
2023/01/23 06:39:39;;;;;;;10.07;4.13;;;;;;;-13.24;58.15;100839.31;4882766;28;20057;-58
2023/01/23 06:42:10;;;;;;;7.80;3.65;;;;;;;-13.27;58.49;100844.09;4881462;28;20054;-59
2023/01/23 06:44:42;;;;;;;9.55;4.72;;;;;;;-13.32;58.82;100852.88;4883864;28;20074;-59
2023/01/23 06:47:13;;;;;;;10.68;4.70;;;;;;;-13.53;58.47;100835.13;4881474;28;20533;-59
2023/01/23 06:49:43;;;;;;;11.77;5.32;;;;;;;-13.65;58.90;100849.16;4883114;28;20044;-59
2023/01/23 06:52:13;;;;;;;17.70;7.20;;;;;;;-13.77;58.72;100838.91;4883853;28;20084;-58
2023/01/23 06:54:44;;;;;;;27.58;12.18;;;;;;;-13.89;59.19;100831.91;4885849;28;20081;-59
2023/01/23 06:57:14;;;;;;;36.92;15.82;;;;;;;-13.88;59.84;100833.66;4886740;28;20052;-59
2023/01/23 06:59:47;;;;;;;24.13;11.23;;;;;;;-13.95;59.54;100832.22;4886374;28;20056;-59
2023/01/23 07:02:17;;;;;;;21.35;10.10;;;;;;;-14.17;59.62;100829.44;4886789;28;20056;-59
2023/01/23 07:04:48;;;;;;;28.58;11.52;;;;;;;-14.44;59.37;100832.81;4886808;28;20228;-58
2023/01/23 07:07:18;;;;;;;77.80;23.35;;;;;;;-14.57;59.48;100828.34;4886337;28;20353;-58
2023/01/23 07:09:49;;;;;;;47.97;14.75;;;;;;;-14.99;58.61;100821.13;4885790;28;20070;-60
2023/01/23 07:12:19;;;;;;;21.70;9.23;;;;;;;-15.55;58.92;100831.69;4894046;28;20058;-58
2023/01/23 07:14:51;;;;;;;24.05;8.55;;;;;;;-15.97;59.95;100844.34;4891948;28;20042;-58
2023/01/23 07:17:22;;;;;;;21.60;8.65;;;;;;;-16.29;60.98;100824.59;4885781;28;20156;-58
2023/01/23 07:19:53;;;;;;;13.55;6.60;;;;;;;-16.50;61.85;100827.47;4886109;28;20045;-57
2023/01/23 07:22:24;;;;;;;16.23;6.90;;;;;;;-16.79;62.36;100818.88;4887326;28;20041;-57
2023/01/23 07:24:54;;;;;;;14.45;7.20;;;;;;;-16.99;62.92;100816.88;4886028;28;20064;-57
2023/01/23 07:27:25;;;;;;;17.92;8.88;;;;;;;-17.10;63.33;100822.41;4885929;28;20126;-57
2023/01/23 07:29:58;;;;;;;18.58;11.98;;;;;;;-17.28;63.86;100823.91;4885736;28;20069;-57
2023/01/23 07:32:28;;;;;;;40.42;18.75;;;;;;;-17.53;63.87;100820.53;4884021;28;20534;-57
2023/01/23 07:34:59;;;;;;;59.65;22.80;;;;;;;-17.60;64.31;100823.13;4884580;28;20098;-55
2023/01/23 07:37:29;;;;;;;35.22;17.23;;;;;;;-17.78;64.73;100826.22;4893324;28;20062;-56
2023/01/23 07:40:00;;;;;;;38.28;20.77;;;;;;;-17.95;65.38;100815.38;4890038;28;20054;-57
2023/01/23 07:42:31;;;;;;;39.47;16.63;;;;;;;-17.96;66.90;100826.09;4888077;28;20059;-57
2023/01/23 07:45:03;;;;;;;156.23;68.82;;;;;;;-17.94;67.67;100837.13;4885501;28;20451;-57
2023/01/23 07:47:33;;;;;;;84.57;45.50;;;;;;;-17.98;68.03;100836.66;4885367;28;20056;-55
2023/01/23 07:50:04;;;;;;;16.73;10.32;;;;;;;-18.04;67.91;100831.91;4884820;28;20978;-56
2023/01/23 07:52:35;;;;;;;18.58;10.18;;;;;;;-18.00;68.30;100828.13;4885426;28;20059;-56
2023/01/23 07:55:06;;;;;;;10.55;6.65;;;;;;;-18.09;68.54;100838.03;4885921;28;20056;-55
2023/01/23 07:57:36;;;;;;;21.25;8.77;;;;;;;-18.39;68.82;100786.69;4884774;28;20041;-56
2023/01/23 08:00:24;;;;;;;37.58;12.95;;;;;;;-18.00;68.99;100838.97;4884175;28;20045;-56
2023/01/23 08:02:58;;;;;;;28.90;11.00;;;;;;;-18.23;69.03;100798.28;4818435;28;20049;-57
2023/01/23 08:05:29;;;;;;;19.83;8.55;;;;;;;-18.47;68.46;100792.44;4828563;28;20494;-56
2023/01/23 08:08:00;;;;;;;15.32;7.18;;;;;;;-18.41;68.38;100818.06;4826857;28;20052;-56
2023/01/23 08:10:42;;;;;;;13.95;6.93;;;;;;;-18.24;68.64;100842.28;4813844;28;20820;-55
2023/01/23 08:13:16;;;;;;;8.40;5.50;;;;;;;-18.07;69.38;100846.53;4828126;28;20054;-55
2023/01/23 08:15:48;;;;;;;9.00;4.70;;;;;;;-17.90;69.61;100850.81;4826371;28;20186;-56
2023/01/23 08:18:19;;;;;;;10.27;4.68;;;;;;;-17.74;69.75;100848.25;4828801;28;20055;-58
2023/01/23 08:24:30;;;;;;;6.03;4.55;;;;;;;-17.56;69.96;100840.19;4822964;28;20197;-55
2023/01/23 08:27:02;;;;;;;7.13;4.70;;;;;;;-17.75;69.89;100821.53;4806866;28;20062;-56
2023/01/23 08:29:34;;;;;;;8.35;5.30;;;;;;;-17.46;69.78;100852.91;4828547;28;20093;-55
2023/01/23 08:32:07;;;;;;;27.30;11.52;;;;;;;-17.52;69.55;100844.78;4828163;28;20058;-56
2023/01/23 08:34:39;;;;;;;40.55;15.73;;;;;;;-17.67;69.26;100853.16;4828589;28;20151;-54
2023/01/23 08:37:10;;;;;;;192.48;49.58;;;;;;;-17.78;69.28;100838.69;4825133;28;20059;-56
2023/01/23 08:39:42;;;;;;;147.18;39.35;;;;;;;-17.87;69.13;100847.03;4841719;28;20081;-57
2023/01/23 08:42:14;;;;;;;284.25;72.10;;;;;;;-18.11;68.71;100817.03;4892083;28;20433;-56
2023/01/23 08:44:46;;;;;;;135.35;53.50;;;;;;;-18.31;68.74;100840.75;4884718;28;20140;-55
2023/01/23 08:47:19;;;;;;;40.63;21.65;;;;;;;-18.43;68.95;100838.56;4884746;28;20052;-53
2023/01/23 08:49:51;;;;;;;29.42;15.88;;;;;;;-18.53;69.08;100836.69;4877832;28;20062;-54
2023/01/23 08:52:22;;;;;;;13.13;7.97;;;;;;;-18.68;69.20;100840.03;4887083;28;20045;-54
2023/01/23 08:54:54;;;;;;;16.85;9.63;;;;;;;-18.82;69.46;100841.94;4888644;28;20442;-54
2023/01/23 08:57:26;;;;;;;13.23;7.45;;;;;;;-18.99;69.56;100832.66;4884054;28;20059;-55
2023/01/23 08:59:57;;;;;;;8.70;6.55;;;;;;;-18.81;69.91;100853.69;4883344;28;20095;-55
2023/01/23 09:02:31;;;;;;;8.70;5.75;;;;;;;-18.92;70.15;100834.19;4883679;28;20163;-55
2023/01/23 09:05:03;;;;;;;8.80;5.82;;;;;;;-19.74;70.40;100737.38;4872790;28;20055;-55
2023/01/23 09:07:36;;;;;;;36.17;14.40;;;;;;;-19.07;70.15;100832.53;4883378;28;20040;-54
2023/01/23 09:10:10;;;;;;;46.45;14.38;;;;;;;-19.07;70.50;100847.47;4884522;28;20049;-54
2023/01/23 09:12:42;;;;;;;22.20;8.73;;;;;;;-19.38;70.81;100815.13;4892402;28;20115;-56
2023/01/23 09:15:16;;;;;;;6.82;5.80;;;;;;;-19.21;70.54;100839.41;4901547;28;20087;-54
2023/01/23 09:17:49;;;;;;;9.70;6.10;;;;;;;-19.18;70.96;100839.72;4899817;28;20045;-54
2023/01/23 09:20:21;;;;;;;19.90;9.45;;;;;;;-19.11;71.50;100840.41;4896935;28;20435;-53
2023/01/23 09:22:53;;;;;;;16.00;9.18;;;;;;;-19.63;72.68;100741.88;4901514;28;20049;-55
2023/01/23 09:25:25;;;;;;;17.15;8.65;;;;;;;-18.97;73.78;100842.78;4901496;28;20395;-54
2023/01/23 09:27:57;;;;;;;5.28;4.80;;;;;;;-18.93;74.07;100832.44;4899281;28;20051;-55
2023/01/23 09:30:29;;;;;;;5.93;4.50;;;;;;;-18.93;74.29;100829.94;4901691;28;20137;-55
2023/01/23 09:33:02;;;;;;;7.15;4.13;;;;;;;-18.90;74.20;100827.78;4897987;28;20420;-54
2023/01/23 09:35:34;;;;;;;4.30;3.90;;;;;;;-18.79;74.81;100818.97;4900103;28;20045;-54
2023/01/23 09:38:06;;;;;;;5.00;4.60;;;;;;;-18.76;74.46;100817.69;4901415;28;20845;-55
2023/01/23 09:40:46;;;;;;;6.63;5.00;;;;;;;-18.82;74.15;100817.03;4901276;28;20087;-54
2023/01/23 09:43:23;;;;;;;19.42;8.23;;;;;;;-18.70;74.21;100814.94;4891025;28;20059;-55
2023/01/23 09:46:06;;;;;;;24.30;11.10;;;;;;;-19.04;74.22;100783.03;4889498;28;20076;-53
2023/01/23 09:48:45;;;;;;;9.30;8.02;;;;;;;-18.80;73.54;100790.66;4890869;28;20067;-54
2023/01/23 09:51:26;;;;;;;12.55;5.63;;;;;;;-18.88;72.83;100795.56;4890921;28;20048;-53
2023/01/23 09:54:02;;;;;;;7.35;5.93;;;;;;;-19.03;72.45;100799.78;4889629;28;20482;-52
2023/01/23 09:56:42;;;;;;;14.38;6.55;;;;;;;-19.34;72.32;100784.00;4891068;28;20065;-53
2023/01/23 09:59:19;;;;;;;5.90;5.25;;;;;;;-20.28;72.13;100694.16;4891245;28;20491;-53
2023/01/23 10:01:50;;;;;;;7.95;5.18;;;;;;;-19.65;72.07;100800.53;4896259;28;20096;-53
2023/01/23 10:04:24;;;;;;;5.78;5.18;;;;;;;-19.82;72.09;100793.72;4898958;28;20113;-53
2023/01/23 10:07:12;;;;;;;7.60;4.93;;;;;;;-19.95;72.44;100789.72;4899926;28;20102;-53
2023/01/23 10:10:04;;;;;;;18.25;9.90;;;;;;;-19.99;72.80;100788.47;4890727;28;20052;-53
2023/01/23 10:12:45;;;;;;;29.73;12.77;;;;;;;-20.65;72.78;100674.28;4888009;28;20816;-54
2023/01/23 10:15:26;;;;;;;46.88;15.98;;;;;;;-20.05;72.81;100777.88;4890374;28;20060;-53
2023/01/23 10:18:10;;;;;;;86.25;23.27;;;;;;;-20.16;72.65;100776.69;4889743;28;20063;-50
2023/01/23 10:21:08;;;;;;;44.10;13.23;;;;;;;-20.27;72.83;100784.50;4878806;28;20057;-54
2023/01/23 10:23:50;;;;;;;11.98;5.47;;;;;;;-20.33;73.05;100781.34;4889801;28;20167;-54
2023/01/23 10:26:24;;;;;;;10.20;5.53;;;;;;;-20.70;73.38;100759.81;4890573;28;20059;-56
2023/01/23 10:29:02;;;;;;;11.15;5.45;;;;;;;-20.27;73.52;100789.50;4889029;28;20057;-54
2023/01/23 10:31:40;;;;;;;11.20;5.55;;;;;;;-20.36;73.72;100773.53;4894409;28;20707;-53
2023/01/23 10:34:20;;;;;;;7.72;4.80;;;;;;;-20.19;74.07;100778.78;4895365;28;20060;-55
2023/01/23 10:37:06;;;;;;;18.52;5.88;;;;;;;-20.01;74.39;100789.94;4895099;28;21022;-54
2023/01/23 10:39:49;;;;;;;4.97;4.50;;;;;;;-20.13;74.69;100754.63;4893351;28;20064;-53
2023/01/23 10:42:24;;;;;;;7.18;5.40;;;;;;;-20.01;74.22;100760.09;4889732;28;20038;-52
2023/01/23 10:44:55;;;;;;;6.65;5.18;;;;;;;-19.97;73.78;100783.69;4904269;28;20053;-52
2023/01/23 10:47:32;;;;;;;5.28;4.88;;;;;;;-20.06;73.71;100786.94;4905339;28;20109;-56
2023/01/23 10:50:06;;;;;;;11.10;8.13;;;;;;;-20.19;73.78;100768.84;4892555;28;20075;-53
2023/01/23 10:52:41;;;;;;;12.50;9.10;;;;;;;-20.15;73.68;100775.94;4905199;28;20048;-53
2023/01/23 10:55:31;;;;;;;7.30;5.65;;;;;;;-20.14;73.83;100762.81;4894259;28;20506;-54
2023/01/23 10:58:03;;;;;;;;;;;;;;;-20.09;73.64;100781.63;4893449;28;20554;-53
2023/01/23 11:00:40;;;;;;;63.00;24.58;;;;;;;-20.27;73.15;100764.63;4905260;28;20328;-54
2023/01/23 11:03:30;;;;;;;81.47;26.67;;;;;;;-20.22;73.40;100778.47;4894241;28;20152;-53
2023/01/23 11:06:05;;;;;;;41.83;13.73;;;;;;;-20.17;73.71;100782.34;4895152;28;20057;-53
2023/01/23 11:08:40;;;;;;;43.60;12.88;;;;;;;-20.12;73.24;100791.19;4903578;28;20136;-54
2023/01/23 11:11:29;;;;;;;63.78;16.25;;;;;;;-20.26;72.95;100793.75;4891463;28;20112;-54
2023/01/23 11:14:15;;;;;;;121.07;31.63;;;;;;;-21.06;73.20;100667.13;4878424;28;20050;-52
2023/01/23 11:16:47;;;;;;;139.35;38.72;;;;;;;-20.53;73.51;100765.06;4882402;28;20057;-53
2023/01/23 11:19:23;;;;;;;132.40;31.63;;;;;;;-20.28;74.01;100792.69;4893284;28;20127;-53
2023/01/23 11:21:56;;;;;;;60.22;17.70;;;;;;;-20.13;74.62;100789.44;4882744;28;20534;-54
2023/01/23 11:24:35;;;;;;;8.55;6.93;;;;;;;-19.86;75.30;100801.59;4894364;28;20055;-53
2023/01/23 11:27:23;;;;;;;6.72;6.03;;;;;;;-19.70;75.44;100804.16;4880158;28;20130;-54
2023/01/23 11:30:28;;;;;;;5.40;4.90;;;;;;;-19.55;75.40;100789.13;4882813;28;20060;-54
2023/01/23 11:33:02;;;;;;;10.00;6.40;;;;;;;-19.40;75.54;100795.78;4893140;28;20140;-53
2023/01/23 11:35:58;;;;;;;7.97;5.05;;;;;;;-19.56;75.44;100745.94;4883055;28;20413;-53
2023/01/23 11:38:39;;;;;;;7.05;5.00;;;;;;;-19.25;76.15;100777.53;4882367;28;24979;-56
2023/01/23 11:41:29;;;;;;;22.20;8.95;;;;;;;-19.16;76.12;100783.50;4873165;28;20051;-55
2023/01/23 11:44:03;;;;;;;11.82;7.55;;;;;;;-19.78;75.97;100650.69;4890235;28;20284;-54
2023/01/23 11:46:55;;;;;;;10.95;7.90;;;;;;;-19.00;75.80;100775.19;4893123;28;20045;-53
2023/01/23 11:49:42;;;;;;;23.05;11.15;;;;;;;-19.03;75.45;100779.84;4882478;28;20573;-55